createdAt,value
2019-02-19T00:01:04.528Z,7.60
2019-02-19T00:03:32.196Z,5.73
2019-02-19T00:05:59.535Z,6.90
2019-02-19T00:08:28.338Z,6.80
2019-02-19T00:10:56.476Z,6.77
2019-02-19T00:13:25.515Z,6.57
2019-02-19T00:15:53.980Z,6.20
2019-02-19T00:18:23.109Z,5.90
2019-02-19T00:20:51.775Z,6.83
2019-02-19T00:23:19.516Z,7.93
2019-02-19T00:25:48.184Z,6.30
2019-02-19T00:28:16.229Z,5.57
2019-02-19T00:30:44.672Z,5.97
2019-02-19T00:33:12.952Z,5.63
2019-02-19T00:35:43.056Z,5.40
2019-02-19T00:38:14.274Z,6.03
2019-02-19T00:40:42.412Z,5.67
2019-02-19T00:43:10.955Z,6.33
2019-02-19T00:45:40.152Z,6.33
2019-02-19T00:48:08.978Z,6.83
2019-02-19T00:50:38.779Z,6.40
2019-02-19T00:53:07.590Z,5.73
2019-02-19T00:55:35.647Z,6.10
2019-02-19T00:58:04.144Z,6.10
2019-02-19T01:00:31.823Z,5.37
2019-02-19T01:03:00.227Z,6.30
2019-02-19T01:05:28.539Z,5.63
2019-02-19T01:07:56.928Z,6.70
2019-02-19T01:10:25.555Z,7.07
2019-02-19T01:12:53.976Z,6.10
2019-02-19T01:15:25.443Z,6.17
2019-02-19T01:17:52.615Z,6.00
2019-02-19T01:20:23.530Z,6.40
2019-02-19T01:22:51.991Z,5.60
2019-02-19T01:25:19.975Z,6.67
2019-02-19T01:27:47.935Z,6.33
2019-02-19T01:30:16.318Z,6.30
2019-02-19T01:32:43.979Z,6.93
2019-02-19T01:35:11.662Z,6.20
2019-02-19T01:37:39.830Z,6.47
2019-02-19T01:40:07.982Z,6.53
2019-02-19T01:42:36.266Z,6.27
2019-02-19T01:45:05.267Z,6.30
2019-02-19T01:47:33.371Z,6.20
2019-02-19T01:50:01.702Z,6.57
2019-02-19T01:52:32.244Z,7.07
2019-02-19T01:55:01.433Z,6.03
2019-02-19T01:57:29.919Z,6.13
2019-02-19T01:59:57.617Z,7.20
2019-02-19T02:02:26.424Z,7.37
2019-02-19T02:04:54.519Z,6.73
2019-02-19T02:07:22.808Z,6.93
2019-02-19T02:09:51.192Z,7.37
2019-02-19T02:12:19.166Z,7.80
2019-02-19T02:14:47.564Z,6.70
2019-02-19T02:17:16.376Z,6.90
2019-02-19T02:19:45.361Z,6.90
2019-02-19T02:22:14.115Z,7.10
2019-02-19T02:24:42.657Z,6.80
2019-02-19T02:27:10.702Z,6.50
2019-02-19T02:29:39.172Z,7.47
2019-02-19T02:32:07.144Z,7.23
2019-02-19T02:34:35.841Z,6.10
2019-02-19T02:37:04.550Z,7.57
2019-02-19T02:39:35.054Z,7.63
2019-02-19T02:42:03.221Z,7.83
2019-02-19T02:44:32.495Z,7.30
2019-02-19T02:47:02.347Z,6.83
2019-02-19T02:49:31.043Z,7.83
2019-02-19T02:51:59.513Z,7.30
2019-02-19T02:54:29.093Z,7.47
2019-02-19T02:56:57.851Z,7.87
2019-02-19T02:59:26.548Z,7.67
2019-02-19T03:01:55.152Z,8.27
2019-02-19T03:04:23.163Z,8.47
2019-02-19T03:07:09.731Z,9.50
2019-02-19T03:09:39.008Z,8.10
2019-02-19T03:12:08.152Z,8.90
2019-02-19T03:14:36.573Z,8.00
2019-02-19T03:17:05.159Z,8.07
2019-02-19T03:19:33.836Z,8.10
2019-02-19T03:22:01.458Z,7.43
2019-02-19T03:24:30.477Z,7.33
2019-02-19T03:26:59.028Z,8.37
2019-02-19T03:29:26.904Z,8.00
2019-02-19T03:31:54.452Z,7.53
2019-02-19T03:34:22.902Z,7.90
2019-02-19T03:36:51.093Z,8.97
2019-02-19T03:39:21.788Z,7.67
2019-02-19T03:41:50.025Z,8.80
2019-02-19T03:44:19.140Z,8.30
2019-02-19T03:46:48.701Z,7.80
2019-02-19T03:49:20.879Z,8.40
2019-02-19T03:51:49.565Z,7.83
2019-02-19T03:54:17.981Z,8.67
2019-02-19T03:56:46.366Z,8.17
2019-02-19T03:59:14.529Z,8.43
2019-02-19T04:01:46.207Z,8.57
2019-02-19T04:04:16.811Z,8.30
2019-02-19T04:06:45.916Z,8.50
2019-02-19T04:09:15.155Z,7.13
2019-02-19T04:11:43.204Z,8.20
2019-02-19T04:14:11.791Z,7.63
2019-02-19T04:16:40.476Z,7.90
2019-02-19T04:19:09.659Z,9.17
2019-02-19T04:21:40.633Z,8.27
2019-02-19T04:24:08.959Z,7.20
2019-02-19T04:26:37.447Z,8.70
2019-02-19T04:29:05.834Z,8.67
2019-02-19T04:31:34.302Z,7.27
2019-02-19T04:34:02.690Z,8.60
2019-02-19T04:36:31.166Z,8.70
2019-02-19T04:38:59.657Z,9.13
2019-02-19T04:41:27.934Z,8.90
2019-02-19T04:43:56.032Z,7.77
2019-02-19T04:46:31.185Z,8.30
2019-02-19T04:48:54.732Z,8.00
2019-02-19T04:51:22.782Z,7.27
2019-02-19T04:53:50.898Z,7.97
2019-02-19T04:56:19.565Z,8.10
2019-02-19T04:58:48.228Z,8.50
2019-02-19T05:01:17.218Z,7.30
2019-02-19T05:03:45.933Z,6.67
2019-02-19T05:06:14.789Z,8.40
2019-02-19T05:08:44.603Z,7.43
2019-02-19T05:11:13.197Z,8.13
2019-02-19T05:13:41.758Z,7.53
2019-02-19T05:16:09.839Z,6.60
2019-02-19T05:18:39.877Z,7.17
2019-02-19T05:21:08.746Z,6.80
2019-02-19T05:23:40.261Z,6.27
2019-02-19T05:26:08.467Z,7.07
2019-02-19T05:28:36.572Z,7.93
2019-02-19T05:31:04.804Z,7.10
2019-02-19T05:33:34.171Z,7.53
2019-02-19T05:36:02.543Z,8.73
2019-02-19T05:38:31.668Z,8.43
2019-02-19T05:40:59.641Z,8.27
2019-02-19T05:43:28.024Z,7.90
2019-02-19T05:45:56.456Z,7.93
2019-02-19T05:48:29.566Z,7.67
2019-02-19T05:50:58.298Z,9.67
2019-02-19T05:53:29.256Z,8.17
2019-02-19T05:55:57.068Z,8.57
2019-02-19T05:58:25.223Z,9.73
2019-02-19T06:00:53.371Z,9.37
2019-02-19T06:03:21.791Z,8.43
2019-02-19T06:05:53.112Z,8.40
2019-02-19T06:08:21.498Z,8.37
2019-02-19T06:10:52.740Z,9.10
2019-02-19T06:13:22.790Z,9.37
2019-02-19T06:15:51.098Z,9.20
2019-02-19T06:18:20.643Z,9.70
2019-02-19T06:20:50.322Z,9.20
2019-02-19T06:23:19.175Z,10.27
2019-02-19T06:25:50.452Z,8.80
2019-02-19T06:28:18.273Z,8.73
2019-02-19T06:30:46.415Z,10.43
2019-02-19T06:33:14.740Z,9.30
2019-02-19T06:35:43.815Z,8.10
2019-02-19T06:38:16.014Z,9.20
2019-02-19T06:40:44.551Z,8.60
2019-02-19T06:43:12.258Z,8.50
2019-02-19T06:45:54.544Z,8.73
2019-02-19T06:48:23.122Z,9.90
2019-02-19T06:50:51.068Z,9.03
2019-02-19T06:53:20.912Z,8.33
2019-02-19T06:55:49.988Z,8.13
2019-02-19T06:58:18.915Z,9.53
2019-02-19T07:00:46.766Z,8.97
2019-02-19T07:03:25.700Z,10.33
2019-02-19T07:05:54.477Z,9.70
2019-02-19T07:08:21.815Z,9.30
2019-02-19T07:10:49.946Z,9.70
2019-02-19T07:13:17.956Z,9.17
2019-02-19T07:15:45.973Z,9.63
2019-02-19T07:18:14.068Z,10.50
2019-02-19T07:20:44.246Z,9.23
2019-02-19T07:23:12.336Z,9.57
2019-02-19T07:25:40.478Z,10.07
2019-02-19T07:28:08.149Z,9.80
2019-02-19T07:30:36.209Z,9.90
2019-02-19T07:33:04.617Z,9.87
2019-02-19T07:35:33.915Z,9.13
2019-02-19T07:38:02.177Z,9.30
2019-02-19T07:40:48.079Z,10.20
2019-02-19T07:43:16.240Z,10.97
2019-02-19T07:45:44.539Z,10.23
2019-02-19T07:48:16.376Z,10.47
2019-02-19T07:50:45.730Z,11.60
2019-02-19T07:53:13.835Z,10.27
2019-02-19T07:55:42.033Z,9.80
2019-02-19T07:58:10.785Z,10.70
2019-02-19T08:00:38.776Z,9.87
2019-02-19T08:03:06.783Z,10.40
2019-02-19T08:05:35.322Z,11.67
2019-02-19T08:08:04.227Z,12.10
2019-02-19T08:10:32.851Z,12.10
2019-02-19T08:13:01.984Z,12.60
2019-02-19T08:15:30.188Z,13.17
2019-02-19T08:17:59.506Z,12.70
2019-02-19T08:20:28.924Z,11.50
2019-02-19T08:22:57.369Z,10.97
2019-02-19T08:25:28.900Z,11.53
2019-02-19T08:28:02.041Z,12.20
2019-02-19T08:30:29.677Z,11.73
2019-02-19T08:33:02.588Z,13.03
2019-02-19T08:35:31.138Z,12.10
2019-02-19T08:37:59.961Z,11.97
2019-02-19T08:40:28.493Z,10.73
2019-02-19T08:43:17.308Z,13.40
2019-02-19T08:45:46.221Z,13.00
2019-02-19T08:48:15.078Z,12.90
2019-02-19T08:50:43.380Z,13.07
2019-02-19T08:53:12.368Z,11.93
2019-02-19T08:55:44.515Z,12.27
2019-02-19T08:58:12.589Z,12.30
2019-02-19T09:00:42.487Z,13.30
2019-02-19T09:03:10.454Z,13.83
2019-02-19T09:05:38.284Z,14.63
2019-02-19T09:08:07.411Z,13.10
2019-02-19T09:10:35.898Z,13.40
2019-02-19T09:13:06.817Z,14.07
2019-02-19T09:15:34.907Z,12.77
2019-02-19T09:18:03.047Z,13.53
2019-02-19T09:20:36.892Z,14.40
2019-02-19T09:23:05.475Z,13.73
2019-02-19T09:25:36.259Z,13.03
2019-02-19T09:28:07.250Z,14.63
2019-02-19T09:30:36.182Z,14.00
2019-02-19T09:33:06.523Z,16.90
2019-02-19T09:35:34.954Z,16.30
2019-02-19T09:38:03.179Z,16.63
2019-02-19T09:40:31.011Z,14.10
2019-02-19T09:42:58.748Z,15.20
2019-02-19T09:45:30.345Z,14.80
2019-02-19T09:48:01.249Z,14.67
2019-02-19T09:50:28.664Z,15.50
2019-02-19T09:53:00.135Z,15.63
2019-02-19T09:55:26.808Z,15.00
2019-02-19T09:57:54.907Z,15.27
2019-02-19T10:00:24.449Z,14.17
2019-02-19T10:02:54.312Z,12.83
2019-02-19T10:05:23.046Z,12.37
2019-02-19T10:07:51.187Z,13.40
2019-02-19T10:10:20.289Z,14.20
2019-02-19T10:12:49.165Z,13.90
2019-02-19T10:15:16.526Z,13.40
2019-02-19T10:17:47.338Z,12.20
2019-02-19T10:20:17.558Z,13.03
2019-02-19T10:22:46.044Z,13.10
2019-02-19T10:25:14.119Z,12.10
2019-02-19T10:27:45.272Z,12.20
2019-02-19T10:30:15.189Z,12.10
2019-02-19T10:32:44.251Z,13.47
2019-02-19T10:35:14.600Z,12.23
2019-02-19T10:37:42.284Z,12.47
2019-02-19T10:40:13.946Z,13.00
2019-02-19T10:42:42.288Z,13.10
2019-02-19T10:45:12.514Z,13.97
2019-02-19T10:47:40.292Z,14.47
2019-02-19T10:50:13.271Z,14.13
2019-02-19T10:52:41.946Z,13.77
2019-02-19T10:55:12.262Z,13.47
2019-02-19T10:57:40.706Z,13.90
2019-02-19T11:00:11.876Z,14.07
2019-02-19T11:02:40.592Z,13.07
2019-02-19T11:05:08.563Z,13.40
2019-02-19T11:07:36.666Z,12.80
2019-02-19T11:10:05.599Z,13.23
2019-02-19T11:12:34.571Z,13.47
2019-02-19T11:15:02.779Z,12.70
2019-02-19T11:17:32.523Z,14.20
2019-02-19T11:20:00.999Z,12.17
2019-02-19T11:22:29.057Z,12.90
2019-02-19T11:24:57.860Z,12.87
2019-02-19T11:27:26.239Z,13.43
2019-02-19T11:29:54.703Z,13.13
2019-02-19T11:32:23.114Z,14.10
2019-02-19T11:34:59.542Z,13.50
2019-02-19T11:37:27.979Z,14.50
2019-02-19T11:39:56.949Z,15.87
2019-02-19T11:42:27.200Z,12.93
2019-02-19T11:44:55.242Z,14.83
2019-02-19T11:47:27.369Z,12.80
2019-02-19T11:49:55.768Z,13.50
2019-02-19T11:52:24.985Z,14.57
2019-02-19T11:54:56.009Z,14.93
2019-02-19T11:57:31.137Z,14.67
2019-02-19T12:00:00.960Z,15.20
2019-02-19T12:02:32.919Z,13.70
2019-02-19T12:05:07.000Z,13.50
2019-02-19T12:07:38.100Z,13.83
2019-02-19T12:10:07.788Z,13.00
2019-02-19T12:12:46.425Z,11.93
2019-02-19T12:15:19.288Z,12.20
2019-02-19T12:17:47.668Z,12.60
2019-02-19T12:20:16.739Z,12.43
2019-02-19T12:22:46.883Z,11.50
2019-02-19T12:25:15.175Z,11.90
2019-02-19T12:27:42.501Z,11.97
2019-02-19T12:30:13.290Z,10.53
2019-02-19T12:32:41.350Z,11.33
2019-02-19T12:35:09.827Z,8.60
2019-02-19T12:37:37.789Z,9.20
2019-02-19T12:40:06.464Z,8.43
2019-02-19T12:42:34.773Z,8.87
2019-02-19T12:45:04.788Z,8.83
2019-02-19T12:47:32.446Z,8.20
2019-02-19T12:50:04.951Z,8.70
2019-02-19T12:52:32.564Z,7.73
2019-02-19T12:55:02.484Z,7.40
2019-02-19T12:57:30.840Z,5.50
2019-02-19T13:00:01.417Z,5.20
2019-02-19T13:02:30.073Z,5.63
2019-02-19T13:04:58.511Z,4.73
2019-02-19T13:07:26.491Z,4.80
2019-02-19T13:09:54.908Z,4.40
2019-02-19T13:12:28.225Z,3.57
2019-02-19T13:14:56.290Z,3.10
2019-02-19T13:17:24.341Z,3.17
2019-02-19T13:19:52.578Z,2.30
2019-02-19T13:22:21.020Z,1.80
2019-02-19T13:24:49.521Z,1.77
2019-02-19T13:27:17.939Z,2.30
2019-02-19T13:29:45.726Z,1.80
2019-02-19T13:32:14.233Z,1.83
2019-02-19T13:34:42.711Z,2.40
2019-02-19T13:37:11.610Z,2.00
2019-02-19T13:39:40.316Z,2.00
2019-02-19T13:42:08.972Z,1.90
2019-02-19T13:44:37.751Z,1.90
2019-02-19T13:47:06.136Z,2.20
2019-02-19T13:49:34.266Z,1.90
2019-02-19T13:52:12.659Z,2.13
2019-02-19T13:55:10.740Z,2.30
2019-02-19T13:57:44.912Z,2.03
2019-02-19T14:00:19.578Z,1.83
2019-02-19T14:02:56.971Z,2.20
2019-02-19T14:05:26.799Z,1.70
2019-02-19T14:08:17.453Z,1.73
2019-02-19T14:10:47.505Z,2.30
2019-02-19T14:13:17.294Z,2.93
2019-02-19T14:16:07.567Z,1.90
2019-02-19T14:18:50.305Z,1.83
2019-02-19T14:21:58.018Z,1.80
2019-02-19T14:25:00.293Z,1.73
2019-02-19T14:27:57.140Z,2.27
2019-02-19T14:30:51.377Z,2.00
2019-02-19T14:33:27.775Z,2.40
2019-02-19T14:36:11.413Z,2.10
2019-02-19T14:39:02.646Z,2.30
2019-02-19T14:41:50.964Z,2.50
2019-02-19T14:44:51.772Z,2.67
2019-02-19T14:47:40.364Z,2.20
2019-02-19T14:50:29.382Z,2.67
2019-02-19T14:53:18.954Z,2.13
2019-02-19T14:56:07.375Z,2.33
2019-02-19T14:59:11.161Z,2.27
2019-02-19T15:02:04.728Z,2.30
2019-02-19T15:04:51.454Z,2.27
2019-02-19T15:07:39.054Z,1.80
2019-02-19T15:10:42.935Z,2.50
2019-02-19T15:13:17.371Z,1.90
2019-02-19T15:15:52.888Z,2.53
2019-02-19T15:18:42.732Z,2.40
2019-02-19T15:21:25.669Z,1.77
2019-02-19T15:24:18.966Z,2.30
2019-02-19T15:27:14.119Z,2.50
2019-02-19T15:30:01.641Z,2.20
2019-02-19T15:32:49.232Z,2.37
2019-02-19T15:35:41.212Z,2.20
2019-02-19T15:38:19.428Z,2.80
2019-02-19T15:41:22.527Z,2.47
2019-02-19T15:44:00.450Z,2.27
2019-02-19T15:46:48.164Z,3.77
2019-02-19T15:49:36.407Z,3.53
2019-02-19T15:52:23.995Z,5.90
2019-02-19T15:55:10.418Z,5.70
2019-02-19T15:58:08.095Z,3.77
2019-02-19T16:01:07.612Z,2.70
2019-02-19T16:03:40.912Z,3.20
2019-02-19T16:06:29.536Z,12.20
2019-02-19T16:09:13.318Z,4.40
2019-02-19T16:12:07.754Z,3.40
2019-02-19T16:14:51.436Z,2.80
2019-02-19T16:17:41.584Z,3.23
2019-02-19T16:20:31.905Z,2.00
2019-02-19T16:23:17.502Z,2.37
2019-02-19T16:26:05.391Z,2.90
2019-02-19T16:28:50.320Z,3.10
2019-02-19T16:31:34.549Z,2.63
2019-02-19T16:34:21.043Z,2.93
2019-02-19T16:36:57.099Z,2.40
2019-02-19T16:39:50.815Z,3.33
2019-02-19T16:42:37.792Z,2.70
2019-02-19T16:45:25.346Z,3.30
2019-02-19T16:48:26.798Z,2.83
2019-02-19T16:51:16.502Z,2.60
2019-02-19T16:54:12.227Z,2.83
2019-02-19T16:57:02.884Z,2.90
2019-02-19T16:59:56.286Z,3.50
2019-02-19T17:02:45.036Z,2.77
2019-02-19T17:05:42.534Z,3.47
2019-02-19T17:08:42.737Z,3.00
2019-02-19T17:11:35.035Z,3.70
2019-02-19T17:14:11.035Z,3.40
2019-02-19T17:17:01.921Z,3.53
2019-02-19T17:19:49.535Z,3.30
2019-02-19T17:22:25.800Z,3.37
2019-02-19T17:25:20.712Z,3.70
2019-02-19T17:28:01.769Z,4.50
2019-02-19T17:30:47.509Z,3.70
2019-02-19T17:33:34.485Z,3.10
2019-02-19T17:36:18.409Z,12.77
2019-02-19T17:39:00.024Z,4.30
2019-02-19T17:41:54.786Z,4.50
2019-02-19T17:44:36.624Z,4.43
2019-02-19T17:47:36.504Z,3.60
2019-02-19T17:50:38.458Z,4.03
2019-02-19T17:53:21.972Z,3.53
2019-02-19T17:56:10.234Z,3.30
2019-02-19T17:58:48.381Z,4.50
2019-02-19T18:01:39.095Z,4.10
2019-02-19T18:04:21.276Z,4.53
2019-02-19T18:07:01.986Z,3.43
2019-02-19T18:09:40.108Z,3.27
2019-02-19T18:12:27.677Z,3.50
2019-02-19T18:15:14.248Z,4.40
2019-02-19T18:18:04.638Z,3.87
2019-02-19T18:20:32.282Z,4.27
2019-02-19T18:23:01.196Z,3.80
2019-02-19T18:25:29.909Z,3.80
2019-02-19T18:27:58.104Z,3.93
2019-02-19T18:30:25.791Z,4.00
2019-02-19T18:32:55.457Z,3.80
2019-02-19T18:35:24.309Z,3.90
2019-02-19T18:37:53.316Z,4.90
2019-02-19T18:40:21.491Z,5.30
2019-02-19T18:42:49.813Z,4.33
2019-02-19T18:45:17.777Z,5.47
2019-02-19T18:47:45.362Z,6.23
2019-02-19T18:50:13.657Z,6.20
2019-02-19T18:52:42.290Z,6.47
2019-02-19T18:55:10.308Z,6.40
2019-02-19T18:57:38.264Z,6.93
2019-02-19T19:00:08.005Z,7.03
2019-02-19T19:02:35.878Z,7.60
2019-02-19T19:05:06.408Z,8.27
2019-02-19T19:07:34.412Z,5.57
2019-02-19T19:10:02.963Z,5.87
2019-02-19T19:12:31.158Z,5.60
2019-02-19T19:14:59.012Z,7.23
2019-02-19T19:17:26.971Z,8.27
2019-02-19T19:19:55.064Z,8.43
2019-02-19T19:22:23.111Z,9.37
2019-02-19T19:24:51.636Z,9.00
2019-02-19T19:27:19.774Z,8.23
2019-02-19T19:29:47.910Z,7.60
2019-02-19T19:32:16.314Z,7.43
2019-02-19T19:34:44.923Z,6.70
2019-02-19T19:37:13.472Z,5.93
2019-02-19T19:39:41.945Z,6.20
2019-02-19T19:42:11.347Z,5.83
2019-02-19T19:44:39.401Z,6.30
2019-02-19T19:47:08.295Z,6.23
2019-02-19T19:49:37.004Z,6.57
2019-02-19T19:52:05.841Z,5.60
2019-02-19T19:54:33.542Z,7.17
2019-02-19T19:57:01.572Z,7.77
2019-02-19T19:59:32.060Z,5.43
2019-02-19T20:02:00.085Z,5.90
2019-02-19T20:04:30.680Z,7.63
2019-02-19T20:07:01.440Z,9.60
2019-02-19T20:09:29.960Z,12.20
2019-02-19T20:11:58.270Z,10.23
2019-02-19T20:14:28.601Z,9.80
2019-02-19T20:17:00.143Z,10.40
2019-02-19T20:19:28.805Z,8.77
2019-02-19T20:21:58.381Z,8.67
2019-02-19T20:24:28.405Z,9.27
2019-02-19T20:26:56.863Z,8.83
2019-02-19T20:29:25.224Z,7.00
2019-02-19T20:31:53.918Z,5.77
2019-02-19T20:34:23.787Z,7.73
2019-02-19T20:36:52.091Z,11.00
2019-02-19T20:39:21.406Z,8.80
2019-02-19T20:41:50.270Z,7.60
2019-02-19T20:44:19.935Z,8.40
2019-02-19T20:46:48.061Z,8.93
2019-02-19T20:49:16.171Z,7.23
2019-02-19T20:51:46.078Z,6.73
2019-02-19T20:54:14.327Z,7.53
2019-02-19T20:56:42.844Z,8.93
2019-02-19T20:59:12.046Z,8.07
2019-02-19T21:01:40.384Z,6.00
2019-02-19T21:04:08.661Z,6.17
2019-02-19T21:06:37.320Z,5.83
2019-02-19T21:09:09.827Z,6.63
2019-02-19T21:11:41.513Z,6.57
2019-02-19T21:14:11.101Z,6.03
2019-02-19T21:16:42.912Z,5.90
2019-02-19T21:19:13.258Z,5.10
2019-02-19T21:21:45.489Z,5.60
2019-02-19T21:24:14.136Z,5.30
2019-02-19T21:26:41.893Z,4.80
2019-02-19T21:29:11.321Z,6.40
2019-02-19T21:31:40.364Z,5.00
2019-02-19T21:34:09.601Z,6.47
2019-02-19T21:36:38.271Z,6.03
2019-02-19T21:39:07.988Z,4.50
2019-02-19T21:41:36.389Z,5.17
2019-02-19T21:44:05.263Z,5.00
2019-02-19T21:46:34.199Z,5.63
2019-02-19T21:49:02.668Z,5.60
2019-02-19T21:51:30.523Z,5.30
2019-02-19T21:53:59.363Z,5.20
2019-02-19T21:56:27.976Z,5.90
2019-02-19T21:58:55.994Z,6.10
2019-02-19T22:01:24.480Z,6.00
2019-02-19T22:03:52.579Z,6.30
2019-02-19T22:06:21.232Z,5.93
2019-02-19T22:08:50.055Z,6.73
2019-02-19T22:11:18.438Z,6.43
2019-02-19T22:13:47.376Z,6.73
2019-02-19T22:16:16.142Z,6.13
2019-02-19T22:18:43.765Z,7.77
2019-02-19T22:21:23.218Z,6.60
2019-02-19T22:23:52.179Z,10.00
2019-02-19T22:26:21.181Z,13.20
2019-02-19T22:28:49.424Z,7.77
2019-02-19T22:31:17.989Z,5.00
2019-02-19T22:33:48.522Z,4.53
2019-02-19T22:36:17.798Z,4.60
2019-02-19T22:38:46.017Z,5.23
2019-02-19T22:41:16.232Z,4.87
2019-02-19T22:43:44.368Z,5.43
2019-02-19T22:46:14.325Z,5.50
2019-02-19T22:48:42.763Z,7.90
2019-02-19T22:51:10.417Z,7.40
2019-02-19T22:53:45.441Z,7.00
2019-02-19T22:56:18.251Z,5.47
2019-02-19T22:58:46.846Z,6.03
2019-02-19T23:01:27.604Z,5.87
2019-02-19T23:03:59.270Z,8.50
2019-02-19T23:06:27.098Z,7.60
2019-02-19T23:08:56.720Z,6.27
2019-02-19T23:11:24.401Z,5.53
2019-02-19T23:13:52.396Z,6.03
2019-02-19T23:16:21.013Z,5.53
2019-02-19T23:18:49.220Z,4.87
2019-02-19T23:21:16.579Z,5.50
2019-02-19T23:23:45.688Z,5.57
2019-02-19T23:26:13.408Z,5.50
2019-02-19T23:28:42.463Z,5.60
2019-02-19T23:31:10.605Z,5.20
2019-02-19T23:33:38.766Z,4.70
2019-02-19T23:36:20.724Z,5.73
2019-02-19T23:38:49.280Z,5.40
2019-02-19T23:41:18.095Z,5.53
2019-02-19T23:43:46.142Z,5.80
2019-02-19T23:46:15.948Z,5.27
2019-02-19T23:48:44.182Z,4.90
2019-02-19T23:51:11.508Z,5.00
2019-02-19T23:53:42.886Z,4.37
2019-02-19T23:56:11.795Z,4.70
2019-02-19T23:58:40.283Z,5.27
